createdAt,value
2022-12-31T00:00:38.360Z,6.45
2022-12-31T00:03:10.400Z,6.46
2022-12-31T00:05:37.901Z,6.48
2022-12-31T00:08:05.388Z,6.53
2022-12-31T00:10:39.791Z,6.54
2022-12-31T00:13:09.687Z,6.56
2022-12-31T00:15:38.666Z,6.55
2022-12-31T00:18:07.327Z,6.56
2022-12-31T00:20:34.735Z,6.62
2022-12-31T00:23:01.937Z,6.64
2022-12-31T00:25:29.152Z,6.68
2022-12-31T00:27:56.337Z,6.72
2022-12-31T00:30:23.704Z,6.71
2022-12-31T00:32:50.868Z,6.72
2022-12-31T00:35:18.248Z,6.69
2022-12-31T00:37:45.442Z,6.72
2022-12-31T00:40:12.733Z,6.69
2022-12-31T00:42:39.980Z,6.69
2022-12-31T00:45:08.159Z,6.64
2022-12-31T00:47:35.296Z,6.60
2022-12-31T00:50:02.443Z,6.56
2022-12-31T00:52:29.645Z,6.40
2022-12-31T00:54:57.834Z,6.37
2022-12-31T00:57:25.431Z,6.28
2022-12-31T00:59:52.729Z,6.09
2022-12-31T01:02:19.980Z,6.22
2022-12-31T01:04:47.406Z,6.22
2022-12-31T01:07:14.619Z,6.17
2022-12-31T01:09:41.984Z,6.12
2022-12-31T01:12:09.228Z,6.09
2022-12-31T01:14:36.540Z,6.09
2022-12-31T01:17:03.706Z,6.10
2022-12-31T01:19:32.210Z,6.11
2022-12-31T01:21:59.448Z,6.10
2022-12-31T01:24:26.779Z,6.10
2022-12-31T01:26:57.641Z,6.12
2022-12-31T01:29:26.603Z,6.11
2022-12-31T01:31:53.942Z,6.14
2022-12-31T01:34:21.087Z,6.15
2022-12-31T01:36:48.315Z,6.15
2022-12-31T01:39:15.900Z,6.13
2022-12-31T01:41:47.843Z,6.11
2022-12-31T01:44:23.819Z,5.96
2022-12-31T01:46:59.045Z,5.81
2022-12-31T01:49:39.484Z,5.65
2022-12-31T01:52:28.424Z,5.50
2022-12-31T01:55:16.634Z,5.57
2022-12-31T01:57:47.006Z,5.56
2022-12-31T02:00:16.150Z,5.47
2022-12-31T02:02:44.483Z,5.47
2022-12-31T02:06:01.243Z,5.50
2022-12-31T02:08:28.517Z,5.47
2022-12-31T02:10:55.856Z,5.44
2022-12-31T02:13:24.045Z,5.42
2022-12-31T02:16:24.254Z,5.35
2022-12-31T02:19:42.062Z,5.42
2022-12-31T02:22:45.948Z,5.46
2022-12-31T02:26:13.988Z,5.36
2022-12-31T02:29:12.126Z,5.33
2022-12-31T02:32:18.068Z,5.31
2022-12-31T02:34:56.531Z,5.23
2022-12-31T02:37:28.534Z,5.29
2022-12-31T02:39:56.471Z,5.35
2022-12-31T02:42:23.628Z,5.36
2022-12-31T02:44:50.753Z,5.37
2022-12-31T02:48:19.405Z,5.43
2022-12-31T02:51:18.364Z,5.38
2022-12-31T02:54:19.771Z,5.34
2022-12-31T02:57:11.714Z,5.36
2022-12-31T03:00:39.101Z,5.38
2022-12-31T03:03:08.147Z,5.30
2022-12-31T03:05:42.531Z,5.24
2022-12-31T03:08:09.920Z,5.21
2022-12-31T03:10:37.436Z,5.20
2022-12-31T03:13:04.626Z,5.25
2022-12-31T03:15:34.494Z,5.21
2022-12-31T03:18:06.464Z,5.20
2022-12-31T03:21:09.164Z,5.20
2022-12-31T03:23:50.136Z,5.20
2022-12-31T03:26:17.440Z,5.14
2022-12-31T03:28:47.850Z,5.11
2022-12-31T03:31:16.389Z,5.09
2022-12-31T03:33:43.816Z,5.14
2022-12-31T03:36:14.973Z,5.13
2022-12-31T03:38:42.591Z,5.12
2022-12-31T03:41:11.695Z,5.11
2022-12-31T03:43:38.951Z,5.10
2022-12-31T03:46:06.535Z,5.09
2022-12-31T03:48:33.780Z,5.05
2022-12-31T03:51:01.009Z,5.02
2022-12-31T03:53:28.169Z,4.97
2022-12-31T03:55:55.740Z,5.02
2022-12-31T03:58:23.446Z,5.04
2022-12-31T04:00:51.123Z,4.97
2022-12-31T04:03:18.517Z,4.91
2022-12-31T04:05:52.462Z,4.91
2022-12-31T04:08:19.619Z,4.95
2022-12-31T04:10:46.759Z,4.97
2022-12-31T04:13:13.927Z,4.99
2022-12-31T04:15:41.097Z,4.98
2022-12-31T04:18:08.347Z,4.95
2022-12-31T04:20:35.481Z,4.92
2022-12-31T04:23:02.627Z,4.94
2022-12-31T04:25:29.789Z,5.01
2022-12-31T04:27:56.954Z,5.03
2022-12-31T04:30:24.096Z,4.98
2022-12-31T04:32:51.358Z,4.97
2022-12-31T04:35:18.598Z,4.98
2022-12-31T04:37:45.936Z,5.04
2022-12-31T04:40:13.293Z,5.05
2022-12-31T04:42:40.460Z,5.08
2022-12-31T04:45:08.636Z,5.11
2022-12-31T04:47:35.965Z,5.13
2022-12-31T04:50:05.228Z,5.17
2022-12-31T04:52:35.759Z,5.15
2022-12-31T04:55:08.204Z,5.05
2022-12-31T04:57:35.388Z,5.05
2022-12-31T05:00:02.632Z,5.02
2022-12-31T05:02:31.309Z,4.98
2022-12-31T05:04:58.620Z,5.03
2022-12-31T05:07:25.778Z,5.06
2022-12-31T05:09:53.174Z,4.98
2022-12-31T05:12:20.338Z,4.92
2022-12-31T05:14:47.650Z,4.89
2022-12-31T05:17:15.002Z,4.85
2022-12-31T05:19:42.140Z,4.79
2022-12-31T05:22:27.932Z,4.79
2022-12-31T05:24:56.250Z,4.79
2022-12-31T05:27:24.633Z,4.79
2022-12-31T05:29:51.878Z,4.76
2022-12-31T05:32:19.241Z,4.71
2022-12-31T05:34:47.451Z,4.60
2022-12-31T05:37:14.598Z,4.59
2022-12-31T05:39:41.796Z,4.57
2022-12-31T05:42:08.977Z,4.50
2022-12-31T05:44:36.121Z,4.47
2022-12-31T05:47:03.305Z,4.49
2022-12-31T05:49:30.443Z,4.59
2022-12-31T05:51:57.591Z,4.73
2022-12-31T05:54:24.782Z,4.91
2022-12-31T05:56:54.640Z,4.99
2022-12-31T05:59:22.277Z,5.04
2022-12-31T06:01:49.774Z,5.05
2022-12-31T06:04:17.273Z,5.02
2022-12-31T06:06:44.461Z,4.97
2022-12-31T06:09:11.767Z,4.97
2022-12-31T06:11:39.032Z,5.03
2022-12-31T06:14:06.308Z,5.06
2022-12-31T06:16:33.553Z,5.08
2022-12-31T06:19:01.596Z,5.18
2022-12-31T06:21:30.246Z,5.14
2022-12-31T06:23:58.833Z,5.14
2022-12-31T06:26:27.545Z,5.18
2022-12-31T06:28:54.780Z,5.18
2022-12-31T06:31:22.095Z,5.17
2022-12-31T06:33:49.245Z,5.20
2022-12-31T06:36:16.878Z,5.19
2022-12-31T06:38:44.831Z,5.19
2022-12-31T06:41:15.720Z,5.21
2022-12-31T06:43:43.635Z,5.22
2022-12-31T06:46:15.802Z,5.26
2022-12-31T06:48:44.882Z,5.27
2022-12-31T06:51:20.370Z,5.30
2022-12-31T06:53:50.742Z,5.29
2022-12-31T06:56:33.928Z,5.29
2022-12-31T06:59:03.753Z,5.27
2022-12-31T07:01:45.789Z,5.27
2022-12-31T07:04:33.907Z,5.26
2022-12-31T07:07:32.503Z,5.26
2022-12-31T07:10:48.375Z,5.33
2022-12-31T07:13:56.690Z,5.34
2022-12-31T07:17:27.033Z,5.32
2022-12-31T07:20:17.288Z,5.28
2022-12-31T07:22:46.524Z,5.28
2022-12-31T07:25:16.741Z,5.28
2022-12-31T07:28:35.068Z,5.30
2022-12-31T07:31:26.905Z,5.36
2022-12-31T07:34:25.509Z,5.39
2022-12-31T07:37:39.949Z,5.38
2022-12-31T07:40:48.422Z,5.37
2022-12-31T07:44:00.822Z,5.40
2022-12-31T07:46:57.730Z,5.43
2022-12-31T07:49:28.642Z,5.45
2022-12-31T07:51:57.017Z,5.55
2022-12-31T07:54:24.325Z,5.57
2022-12-31T07:56:52.037Z,5.65
2022-12-31T08:00:08.291Z,5.81
2022-12-31T08:03:04.190Z,5.77
2022-12-31T08:06:32.225Z,5.85
2022-12-31T08:09:28.560Z,5.89
2022-12-31T08:12:00.276Z,5.90
2022-12-31T08:14:29.082Z,5.92
2022-12-31T08:16:57.235Z,5.81
2022-12-31T08:19:32.419Z,5.83
2022-12-31T08:22:36.023Z,5.93
2022-12-31T08:25:21.106Z,5.92
2022-12-31T08:28:49.409Z,5.96
2022-12-31T08:31:27.846Z,5.97
2022-12-31T08:34:30.203Z,6.03
2022-12-31T08:37:06.635Z,6.05
2022-12-31T08:40:16.105Z,6.08
2022-12-31T08:43:04.207Z,6.06
2022-12-31T08:45:52.745Z,6.06
2022-12-31T08:48:43.188Z,6.12
2022-12-31T08:51:23.243Z,6.16
2022-12-31T08:53:51.251Z,6.17
2022-12-31T08:56:32.116Z,6.13
2022-12-31T08:59:50.519Z,6.14
2022-12-31T09:03:09.558Z,6.18
2022-12-31T09:06:30.843Z,6.28
2022-12-31T09:09:38.241Z,6.26
2022-12-31T09:12:44.894Z,6.27
2022-12-31T09:15:42.476Z,6.34
2022-12-31T09:18:12.800Z,6.41
2022-12-31T09:20:43.468Z,6.46
2022-12-31T09:23:13.538Z,6.54
2022-12-31T09:26:11.070Z,6.56
2022-12-31T09:29:14.808Z,6.49
2022-12-31T09:32:15.768Z,6.54
2022-12-31T09:35:15.846Z,6.64
2022-12-31T09:37:56.728Z,6.72
2022-12-31T09:40:54.253Z,6.79
2022-12-31T09:44:04.597Z,6.86
2022-12-31T09:47:14.617Z,6.88
2022-12-31T09:50:08.988Z,6.78
2022-12-31T09:53:17.260Z,6.71
2022-12-31T09:56:17.787Z,6.70
2022-12-31T09:59:11.102Z,6.73
2022-12-31T10:01:51.255Z,6.72
2022-12-31T10:05:12.626Z,6.82
2022-12-31T10:08:13.355Z,6.95
2022-12-31T10:11:03.451Z,6.82
2022-12-31T10:14:27.391Z,6.86
2022-12-31T10:17:19.161Z,6.88
2022-12-31T10:20:09.483Z,7.02
2022-12-31T10:23:53.004Z,7.07
2022-12-31T10:26:53.501Z,7.12
2022-12-31T10:29:48.956Z,7.14
2022-12-31T10:32:43.359Z,7.14
2022-12-31T10:35:56.005Z,7.09
2022-12-31T10:39:03.040Z,7.09
2022-12-31T10:42:22.124Z,7.05
2022-12-31T10:45:29.460Z,7.07
2022-12-31T10:48:51.268Z,7.19
2022-12-31T10:51:53.900Z,7.20
2022-12-31T10:55:03.574Z,7.20
2022-12-31T10:58:38.373Z,7.39
2022-12-31T11:01:34.650Z,7.33
2022-12-31T11:05:12.761Z,7.46
2022-12-31T11:08:26.273Z,7.64
2022-12-31T11:11:49.777Z,7.66
2022-12-31T11:14:44.737Z,7.70
2022-12-31T11:18:06.428Z,7.63
2022-12-31T11:20:55.996Z,7.47
2022-12-31T11:24:20.848Z,7.43
2022-12-31T11:27:29.504Z,7.52
2022-12-31T11:30:35.888Z,7.58
2022-12-31T11:33:15.169Z,7.55
2022-12-31T11:36:45.200Z,7.56
2022-12-31T11:39:49.947Z,7.66
2022-12-31T11:42:31.094Z,7.67
2022-12-31T11:45:10.992Z,7.73
2022-12-31T11:48:28.453Z,7.59
2022-12-31T11:51:31.353Z,7.59
2022-12-31T11:54:39.072Z,7.64
2022-12-31T11:57:29.861Z,7.66
2022-12-31T12:00:20.306Z,7.66
2022-12-31T12:03:02.086Z,7.69
2022-12-31T12:05:30.631Z,7.81
2022-12-31T12:07:58.990Z,7.95
2022-12-31T12:10:47.495Z,7.94
2022-12-31T12:13:17.672Z,7.85
2022-12-31T12:15:54.783Z,7.80
2022-12-31T12:18:41.940Z,7.85
2022-12-31T12:21:19.519Z,7.88
2022-12-31T12:24:16.472Z,8.00
2022-12-31T12:26:45.538Z,7.96
2022-12-31T12:29:30.199Z,7.98
2022-12-31T12:32:15.340Z,8.11
2022-12-31T12:34:49.143Z,8.11
2022-12-31T12:37:35.283Z,7.99
2022-12-31T12:40:29.806Z,7.97
2022-12-31T12:42:59.240Z,7.98
2022-12-31T12:45:52.120Z,7.96
2022-12-31T12:48:34.757Z,7.97
2022-12-31T12:51:11.220Z,7.98
2022-12-31T12:54:44.548Z,8.03
2022-12-31T12:57:43.216Z,8.06
2022-12-31T13:00:25.036Z,8.09
2022-12-31T13:04:32.477Z,8.06
2022-12-31T13:07:19.426Z,8.01
2022-12-31T13:10:48.836Z,7.96
2022-12-31T13:13:34.947Z,7.95
2022-12-31T13:16:40.139Z,7.92
2022-12-31T13:19:41.981Z,7.92
2022-12-31T13:22:37.977Z,7.93
2022-12-31T13:26:05.343Z,7.95
2022-12-31T13:28:35.608Z,7.94
2022-12-31T13:31:15.516Z,7.95
2022-12-31T13:33:58.530Z,7.96
2022-12-31T13:36:28.688Z,7.94
2022-12-31T13:39:01.196Z,7.96
2022-12-31T13:42:21.921Z,8.00
2022-12-31T13:45:02.989Z,8.02
2022-12-31T13:47:44.509Z,8.03
2022-12-31T13:50:41.008Z,8.04
2022-12-31T13:53:32.376Z,8.07
2022-12-31T13:56:06.513Z,8.07
2022-12-31T13:59:22.793Z,8.03
2022-12-31T14:02:32.861Z,7.98
2022-12-31T14:05:17.095Z,7.96
2022-12-31T14:08:06.426Z,7.99
2022-12-31T14:11:50.827Z,7.98
2022-12-31T14:14:51.255Z,8.01
2022-12-31T14:17:48.048Z,8.03
2022-12-31T14:20:49.894Z,8.10
2022-12-31T14:24:19.892Z,8.05
2022-12-31T14:26:55.366Z,8.05
2022-12-31T14:29:46.696Z,8.05
2022-12-31T14:32:35.548Z,8.07
2022-12-31T14:35:37.600Z,8.11
2022-12-31T14:39:17.296Z,8.16
2022-12-31T14:42:18.681Z,8.07
2022-12-31T14:45:30.858Z,8.15
2022-12-31T14:48:22.873Z,8.13
2022-12-31T14:50:50.315Z,8.15
2022-12-31T14:53:27.107Z,8.17
2022-12-31T14:56:24.607Z,8.04
2022-12-31T14:59:00.402Z,7.92
2022-12-31T15:01:27.976Z,7.91
2022-12-31T15:03:57.998Z,7.93
2022-12-31T15:07:04.776Z,7.76
2022-12-31T15:09:59.714Z,7.74
2022-12-31T15:13:10.161Z,7.68
2022-12-31T15:16:24.374Z,7.57
2022-12-31T15:19:17.248Z,7.50
2022-12-31T15:22:35.417Z,7.50
2022-12-31T15:25:04.541Z,7.56
2022-12-31T15:27:38.496Z,7.53
2022-12-31T15:30:07.569Z,7.55
2022-12-31T15:32:43.116Z,7.52
2022-12-31T15:35:22.367Z,7.44
2022-12-31T15:38:39.080Z,7.40
2022-12-31T15:41:36.790Z,7.52
2022-12-31T15:44:51.796Z,7.45
2022-12-31T15:47:37.316Z,7.33
2022-12-31T15:50:19.285Z,7.29
2022-12-31T15:53:03.189Z,7.34
2022-12-31T15:55:44.211Z,7.38
2022-12-31T15:58:18.333Z,7.36
2022-12-31T16:01:13.910Z,7.47
2022-12-31T16:04:05.556Z,7.30
2022-12-31T16:06:39.263Z,7.26
2022-12-31T16:09:19.505Z,7.33
2022-12-31T16:11:46.903Z,7.34
2022-12-31T16:14:37.684Z,7.24
2022-12-31T16:17:06.765Z,7.26
2022-12-31T16:19:46.118Z,7.29
2022-12-31T16:22:45.925Z,7.16
2022-12-31T16:25:36.299Z,7.13
2022-12-31T16:28:04.279Z,7.18
2022-12-31T16:30:35.882Z,7.29
2022-12-31T16:33:09.986Z,7.24
2022-12-31T16:35:37.543Z,7.22
2022-12-31T16:38:19.243Z,7.27
2022-12-31T16:41:16.759Z,7.16
2022-12-31T16:43:46.699Z,7.05
2022-12-31T16:46:27.122Z,7.04
2022-12-31T16:49:20.430Z,7.02
2022-12-31T16:51:49.547Z,7.02
2022-12-31T16:54:50.675Z,7.06
2022-12-31T16:57:24.195Z,7.10
2022-12-31T17:00:01.082Z,7.09
2022-12-31T17:02:44.130Z,7.10
2022-12-31T17:05:29.947Z,7.11
2022-12-31T17:07:57.986Z,7.01
2022-12-31T17:10:36.478Z,6.98
2022-12-31T17:13:30.095Z,7.01
2022-12-31T17:15:59.119Z,7.01
2022-12-31T17:18:36.265Z,7.01
2022-12-31T17:21:09.845Z,6.99
2022-12-31T17:23:39.919Z,7.01
2022-12-31T17:26:23.107Z,7.11
2022-12-31T17:28:53.850Z,7.12
2022-12-31T17:31:37.170Z,7.08
2022-12-31T17:34:15.139Z,7.05
2022-12-31T17:37:06.594Z,7.08
2022-12-31T17:39:49.059Z,7.08
2022-12-31T17:42:36.718Z,7.11
2022-12-31T17:45:21.718Z,7.15
2022-12-31T17:47:53.595Z,7.13
2022-12-31T17:50:24.939Z,7.12
2022-12-31T17:53:12.014Z,7.10
2022-12-31T17:55:39.919Z,7.01
2022-12-31T17:58:07.671Z,6.92
2022-12-31T18:00:37.325Z,6.89
2022-12-31T18:03:04.630Z,6.91
2022-12-31T18:05:31.866Z,6.93
2022-12-31T18:07:59.109Z,7.02
2022-12-31T18:10:29.343Z,6.97
2022-12-31T18:12:58.825Z,6.90
2022-12-31T18:15:26.108Z,6.83
2022-12-31T18:17:53.342Z,6.77
2022-12-31T18:20:20.747Z,6.73
2022-12-31T18:22:48.163Z,6.72
2022-12-31T18:25:24.328Z,6.73
2022-12-31T18:27:52.703Z,6.80
2022-12-31T18:30:19.891Z,6.77
2022-12-31T18:32:47.419Z,6.76
2022-12-31T18:35:49.060Z,6.74
2022-12-31T18:38:18.583Z,6.74
2022-12-31T18:40:58.523Z,6.76
2022-12-31T18:43:25.959Z,6.70
2022-12-31T18:45:53.492Z,6.60
2022-12-31T18:48:20.867Z,6.60
2022-12-31T18:50:48.764Z,6.59
2022-12-31T18:53:22.227Z,6.55
2022-12-31T18:55:57.705Z,6.54
2022-12-31T18:58:24.980Z,6.57
2022-12-31T19:00:52.702Z,6.63
2022-12-31T19:03:27.321Z,6.69
2022-12-31T19:05:54.765Z,6.72
2022-12-31T19:08:23.653Z,6.70
2022-12-31T19:10:53.440Z,6.75
2022-12-31T19:13:20.927Z,6.73
2022-12-31T19:15:53.275Z,6.79
2022-12-31T19:18:20.526Z,6.74
2022-12-31T19:20:47.809Z,6.71
2022-12-31T19:23:19.055Z,6.69
2022-12-31T19:25:48.894Z,6.66
2022-12-31T19:28:26.554Z,6.66
2022-12-31T19:30:54.532Z,6.61
2022-12-31T19:33:22.338Z,6.61
2022-12-31T19:35:49.680Z,6.64
2022-12-31T19:38:26.684Z,6.63
2022-12-31T19:40:55.171Z,6.62
2022-12-31T19:43:23.851Z,6.65
2022-12-31T19:45:51.853Z,6.60
2022-12-31T19:48:30.509Z,6.57
2022-12-31T19:50:59.978Z,6.58
2022-12-31T19:53:28.521Z,6.59
2022-12-31T19:55:55.697Z,6.60
2022-12-31T19:58:26.518Z,6.56
2022-12-31T20:01:02.735Z,6.57
2022-12-31T20:03:33.077Z,6.51
2022-12-31T20:06:09.342Z,6.51
2022-12-31T20:08:38.838Z,6.47
2022-12-31T20:11:18.619Z,6.38
2022-12-31T20:13:48.885Z,6.37
2022-12-31T20:16:20.590Z,6.38
2022-12-31T20:18:48.451Z,6.38
2022-12-31T20:21:25.097Z,6.38
2022-12-31T20:23:54.083Z,6.42
2022-12-31T20:26:24.604Z,6.44
2022-12-31T20:28:53.354Z,6.44
2022-12-31T20:31:25.360Z,6.42
2022-12-31T20:33:54.845Z,6.45
2022-12-31T20:36:23.057Z,6.54
2022-12-31T20:38:50.586Z,6.49
2022-12-31T20:41:22.056Z,6.50
2022-12-31T20:43:50.176Z,6.49
2022-12-31T20:46:24.722Z,6.49
2022-12-31T20:48:56.126Z,6.51
2022-12-31T20:51:24.231Z,6.50
2022-12-31T20:53:59.647Z,6.48
2022-12-31T20:56:31.587Z,6.52
2022-12-31T20:58:59.519Z,6.53
2022-12-31T21:01:36.373Z,6.51
2022-12-31T21:04:15.093Z,6.49
2022-12-31T21:06:42.527Z,6.48
2022-12-31T21:09:10.152Z,6.45
2022-12-31T21:11:56.075Z,6.45
2022-12-31T21:14:23.328Z,6.45
2022-12-31T21:16:50.772Z,6.43
2022-12-31T21:19:17.961Z,6.41
2022-12-31T21:21:45.199Z,6.42
2022-12-31T21:24:12.451Z,6.38
2022-12-31T21:26:39.648Z,6.44
2022-12-31T21:29:06.889Z,6.48
2022-12-31T21:31:34.162Z,6.53
2022-12-31T21:34:01.479Z,6.54
2022-12-31T21:36:28.791Z,6.58
2022-12-31T21:38:56.061Z,6.56
2022-12-31T21:41:41.842Z,6.54
2022-12-31T21:44:09.065Z,6.55
2022-12-31T21:46:36.379Z,6.54
2022-12-31T21:49:04.049Z,6.56
2022-12-31T21:51:31.230Z,6.51
2022-12-31T21:53:58.827Z,6.51
2022-12-31T21:56:26.062Z,6.49
2022-12-31T21:59:21.580Z,6.52
2022-12-31T22:02:07.380Z,6.52
2022-12-31T22:07:21.798Z,6.45
2022-12-31T22:09:48.939Z,6.43
2022-12-31T22:12:16.100Z,6.44
2022-12-31T22:15:15.726Z,6.46
2022-12-31T22:17:30.679Z,6.46
2022-12-31T22:20:25.934Z,6.49
2022-12-31T22:22:45.079Z,6.54
2022-12-31T22:25:12.321Z,6.56
2022-12-31T22:27:39.595Z,6.60
2022-12-31T22:30:08.459Z,6.60
2022-12-31T22:32:35.727Z,6.58
2022-12-31T22:35:03.089Z,6.58
2022-12-31T22:40:17.719Z,6.48
2022-12-31T22:42:44.976Z,6.48
2022-12-31T22:45:12.298Z,6.45
2022-12-31T22:47:39.622Z,6.44
2022-12-31T22:50:07.658Z,6.46
2022-12-31T22:52:34.933Z,6.47
2022-12-31T22:55:02.363Z,6.46
2022-12-31T22:57:29.640Z,6.47
2022-12-31T22:59:56.786Z,6.47
2022-12-31T23:02:23.960Z,6.47
2022-12-31T23:04:51.240Z,6.50
2022-12-31T23:07:18.469Z,6.51
2022-12-31T23:10:04.237Z,6.54
2022-12-31T23:12:31.507Z,6.59
2022-12-31T23:15:17.170Z,6.57
2022-12-31T23:18:03.079Z,6.56
2022-12-31T23:20:48.943Z,6.59
2022-12-31T23:23:17.057Z,6.60
2022-12-31T23:25:50.135Z,6.59
2022-12-31T23:28:23.271Z,6.58
2022-12-31T23:30:51.729Z,6.57
2022-12-31T23:33:26.235Z,6.56
2022-12-31T23:36:06.303Z,6.55
2022-12-31T23:38:33.676Z,6.56
2022-12-31T23:41:00.869Z,6.61
2022-12-31T23:43:28.049Z,6.66
2022-12-31T23:45:55.332Z,6.65
2022-12-31T23:48:22.574Z,6.62
2022-12-31T23:50:53.875Z,6.61
2022-12-31T23:53:25.038Z,6.61
2022-12-31T23:55:53.120Z,6.62
2022-12-31T23:58:21.131Z,6.68
